createdAt,value
2019-05-13T00:01:43.473Z,68.21
2019-05-13T00:04:10.829Z,68.09
2019-05-13T00:06:50.365Z,68.14
2019-05-13T00:09:06.791Z,68.18
2019-05-13T00:11:34.587Z,68.68
2019-05-13T00:14:04.485Z,68.46
2019-05-13T00:16:33.599Z,68.47
2019-05-13T00:19:00.316Z,68.96
2019-05-13T00:21:27.360Z,68.77
2019-05-13T00:23:54.636Z,68.73
2019-05-13T00:26:21.470Z,68.71
2019-05-13T00:28:48.379Z,68.67
2019-05-13T00:31:15.401Z,68.53
2019-05-13T00:33:44.408Z,68.97
2019-05-13T00:36:11.253Z,69.03
2019-05-13T00:38:38.510Z,69.47
2019-05-13T00:41:05.303Z,69.76
2019-05-13T00:43:33.824Z,68.87
2019-05-13T00:46:00.967Z,69.13
2019-05-13T00:48:29.796Z,68.48
2019-05-13T00:50:56.706Z,68.13
2019-05-13T00:53:23.811Z,68.30
2019-05-13T00:55:53.434Z,68.98
2019-05-13T00:58:20.181Z,69.44
2019-05-13T01:00:47.379Z,69.38
2019-05-13T01:03:14.295Z,69.44
2019-05-13T01:05:44.221Z,69.18
2019-05-13T01:08:10.541Z,69.52
2019-05-13T01:10:38.200Z,69.72
2019-05-13T01:13:05.203Z,70.24
2019-05-13T01:15:34.556Z,70.48
2019-05-13T01:18:00.694Z,70.44
2019-05-13T01:20:27.993Z,70.31
2019-05-13T01:22:55.293Z,70.12
2019-05-13T01:25:24.257Z,69.68
2019-05-13T01:27:53.775Z,69.79
2019-05-13T01:30:21.181Z,69.70
2019-05-13T01:32:48.057Z,70.36
2019-05-13T01:35:15.397Z,70.42
2019-05-13T01:37:45.968Z,70.02
2019-05-13T01:40:15.178Z,70.06
2019-05-13T01:42:44.333Z,69.87
2019-05-13T01:45:13.760Z,70.79
2019-05-13T01:47:44.118Z,71.23
2019-05-13T01:50:14.017Z,70.73
2019-05-13T01:52:40.422Z,70.41
2019-05-13T01:55:08.110Z,70.00
2019-05-13T01:57:35.491Z,70.00
2019-05-13T02:00:07.376Z,69.78
2019-05-13T02:02:34.169Z,70.05
2019-05-13T02:05:03.782Z,71.90
2019-05-13T02:07:30.446Z,72.30
2019-05-13T02:09:58.717Z,72.23
2019-05-13T02:12:25.816Z,72.29
2019-05-13T02:14:53.399Z,71.32
2019-05-13T02:17:20.425Z,70.90
2019-05-13T02:19:47.676Z,71.15
2019-05-13T02:22:14.826Z,70.75
2019-05-13T02:24:41.680Z,71.62
2019-05-13T02:27:08.527Z,70.98
2019-05-13T02:29:35.268Z,70.85
2019-05-13T02:32:03.220Z,70.54
2019-05-13T02:34:32.190Z,71.07
2019-05-13T02:36:59.100Z,71.08
2019-05-13T02:39:26.520Z,71.23
2019-05-13T02:41:53.663Z,70.98
2019-05-13T02:44:22.559Z,70.66
2019-05-13T02:46:52.294Z,70.87
2019-05-13T02:49:18.190Z,71.62
2019-05-13T02:51:45.163Z,71.70
2019-05-13T02:54:12.821Z,71.64
2019-05-13T02:56:42.222Z,71.19
2019-05-13T02:59:13.007Z,71.47
2019-05-13T03:01:38.146Z,71.37
2019-05-13T03:04:05.802Z,71.80
2019-05-13T03:06:33.435Z,71.96
2019-05-13T03:09:03.111Z,72.05
2019-05-13T03:11:32.885Z,72.48
2019-05-13T03:13:58.683Z,72.39
2019-05-13T03:16:42.633Z,72.05
2019-05-13T03:19:08.350Z,72.19
2019-05-13T03:21:35.520Z,72.04
2019-05-13T03:24:03.755Z,72.19
2019-05-13T03:26:32.135Z,72.17
2019-05-13T03:29:02.809Z,72.11
2019-05-13T03:31:35.235Z,71.72
2019-05-13T03:33:58.545Z,72.07
2019-05-13T03:36:26.648Z,72.13
2019-05-13T03:39:05.317Z,72.23
2019-05-13T03:41:26.388Z,72.32
2019-05-13T03:43:56.378Z,72.31
2019-05-13T03:46:25.134Z,72.24
2019-05-13T03:48:53.061Z,73.07
2019-05-13T03:51:22.449Z,73.57
2019-05-13T03:53:53.219Z,73.30
2019-05-13T03:56:18.652Z,72.90
2019-05-13T03:58:45.752Z,73.41
2019-05-13T04:01:13.580Z,73.33
2019-05-13T04:03:44.095Z,73.73
2019-05-13T04:06:13.526Z,73.00
2019-05-13T04:08:42.995Z,73.33
2019-05-13T04:11:08.540Z,74.15
2019-05-13T04:13:35.812Z,74.66
2019-05-13T04:16:04.406Z,74.35
2019-05-13T04:18:32.129Z,74.64
2019-05-13T04:21:02.757Z,74.43
2019-05-13T04:23:32.032Z,73.83
2019-05-13T04:25:58.049Z,73.25
2019-05-13T04:28:28.201Z,73.67
2019-05-13T04:30:55.174Z,73.62
2019-05-13T04:33:24.539Z,72.67
2019-05-13T04:35:52.943Z,72.93
2019-05-13T04:38:22.783Z,72.67
2019-05-13T04:40:52.649Z,72.42
2019-05-13T04:43:18.903Z,72.66
2019-05-13T04:45:46.297Z,73.08
2019-05-13T04:48:13.180Z,72.88
2019-05-13T04:50:42.917Z,72.67
2019-05-13T04:53:08.923Z,72.74
2019-05-13T04:55:35.988Z,72.61
2019-05-13T04:58:03.714Z,72.05
2019-05-13T05:01:08.870Z,71.43
2019-05-13T05:03:53.109Z,70.87
2019-05-13T05:06:33.137Z,72.11
2019-05-13T05:09:26.901Z,72.80
2019-05-13T05:12:34.471Z,73.15
2019-05-13T05:15:33.673Z,73.89
2019-05-13T05:18:56.120Z,75.06
2019-05-13T05:21:37.650Z,74.88
2019-05-13T05:24:34.112Z,73.69
2019-05-13T05:27:18.322Z,74.20
2019-05-13T05:30:11.720Z,74.19
2019-05-13T05:33:01.951Z,73.59
2019-05-13T05:35:52.198Z,73.82
2019-05-13T05:38:31.807Z,73.76
2019-05-13T05:41:01.781Z,73.40
2019-05-13T05:43:32.046Z,73.04
2019-05-13T05:46:01.943Z,72.14
2019-05-13T05:48:31.534Z,71.71
2019-05-13T05:51:01.979Z,71.77
2019-05-13T05:53:33.374Z,71.33
2019-05-13T05:56:02.775Z,71.02
2019-05-13T05:58:32.397Z,70.88
2019-05-13T06:01:02.458Z,70.27
2019-05-13T06:03:33.983Z,69.56
2019-05-13T06:06:01.889Z,68.58
2019-05-13T06:08:28.971Z,67.95
2019-05-13T06:10:56.350Z,66.82
2019-05-13T06:13:24.019Z,66.37
2019-05-13T06:15:51.375Z,65.86
2019-05-13T06:18:18.646Z,64.75
2019-05-13T06:20:45.642Z,64.18
2019-05-13T06:23:12.927Z,64.09
2019-05-13T06:25:42.736Z,63.45
2019-05-13T06:28:09.169Z,63.06
2019-05-13T06:30:36.140Z,62.69
2019-05-13T06:33:03.502Z,62.22
2019-05-13T06:35:32.338Z,61.87
2019-05-13T06:38:01.405Z,61.43
2019-05-13T06:40:28.340Z,61.11
2019-05-13T06:42:55.132Z,61.05
2019-05-13T06:45:22.273Z,60.96
2019-05-13T06:47:51.995Z,59.17
2019-05-13T06:50:18.024Z,59.44
2019-05-13T06:52:45.280Z,59.72
2019-05-13T06:55:12.286Z,59.33
2019-05-13T06:57:39.037Z,59.16
2019-05-13T07:00:07.049Z,58.74
2019-05-13T07:02:34.294Z,58.63
2019-05-13T07:05:02.369Z,58.81
2019-05-13T07:07:31.717Z,58.54
2019-05-13T07:09:58.343Z,58.26
2019-05-13T07:12:25.417Z,57.91
2019-05-13T07:14:52.221Z,57.64
2019-05-13T07:17:22.063Z,57.39
2019-05-13T07:19:47.896Z,57.34
2019-05-13T07:22:14.696Z,57.08
2019-05-13T07:24:42.015Z,56.69
2019-05-13T07:27:09.268Z,56.23
2019-05-13T07:29:36.439Z,56.01
2019-05-13T07:32:03.485Z,55.98
2019-05-13T07:34:33.462Z,55.69
2019-05-13T07:37:01.754Z,54.90
2019-05-13T07:39:28.306Z,55.00
2019-05-13T07:41:55.187Z,54.71
2019-05-13T07:44:22.412Z,54.60
2019-05-13T07:46:52.094Z,53.60
2019-05-13T07:49:18.101Z,53.72
2019-05-13T07:51:44.953Z,53.41
2019-05-13T07:54:11.937Z,53.29
2019-05-13T07:56:38.757Z,53.06
2019-05-13T07:59:05.722Z,52.66
2019-05-13T08:01:32.926Z,52.39
2019-05-13T08:04:02.184Z,52.16
2019-05-13T08:06:28.770Z,52.25
2019-05-13T08:08:55.935Z,51.87
2019-05-13T08:11:24.043Z,51.79
2019-05-13T08:13:51.921Z,51.50
2019-05-13T08:16:18.674Z,51.17
2019-05-13T08:18:45.536Z,50.60
2019-05-13T08:21:12.698Z,49.83
2019-05-13T08:23:41.733Z,49.85
2019-05-13T08:26:08.317Z,50.07
2019-05-13T08:28:35.074Z,49.55
2019-05-13T08:31:02.399Z,49.61
2019-05-13T08:33:31.905Z,49.02
2019-05-13T08:35:58.802Z,48.71
2019-05-13T08:38:26.574Z,48.23
2019-05-13T08:40:53.485Z,48.08
2019-05-13T08:43:22.572Z,48.08
2019-05-13T08:45:51.168Z,47.58
2019-05-13T08:50:45.072Z,46.83
2019-05-13T08:53:12.413Z,44.11
2019-05-13T08:55:41.789Z,45.85
2019-05-13T08:58:08.247Z,42.44
2019-05-13T09:01:02.205Z,45.28
2019-05-13T09:03:32.297Z,44.21
2019-05-13T09:05:57.994Z,44.34
2019-05-13T09:08:25.991Z,44.04
2019-05-13T09:10:56.768Z,43.92
2019-05-13T09:13:22.578Z,43.09
2019-05-13T09:15:51.647Z,43.55
2019-05-13T09:18:18.873Z,43.21
2019-05-13T09:20:45.906Z,43.22
2019-05-13T09:23:12.892Z,43.16
2019-05-13T09:25:41.544Z,42.18
2019-05-13T09:28:09.107Z,42.00
2019-05-13T09:30:36.051Z,41.76
2019-05-13T09:33:03.014Z,41.45
2019-05-13T09:35:31.565Z,38.45
2019-05-13T09:37:58.630Z,40.64
2019-05-13T09:40:25.390Z,41.16
2019-05-13T09:42:55.243Z,40.18
2019-05-13T09:45:21.659Z,39.64
2019-05-13T09:47:48.607Z,39.42
2019-05-13T09:50:28.383Z,39.34
2019-05-13T09:52:47.595Z,38.90
2019-05-13T09:55:26.333Z,38.34
2019-05-13T09:57:43.440Z,38.55
2019-05-13T10:00:12.296Z,38.75
2019-05-13T10:02:39.191Z,38.01
2019-05-13T10:05:06.535Z,36.86
2019-05-13T10:07:33.533Z,37.53
2019-05-13T10:10:01.886Z,36.93
2019-05-13T10:12:31.609Z,36.40
2019-05-13T10:14:57.735Z,35.23
2019-05-13T10:17:24.729Z,34.83
2019-05-13T10:19:52.146Z,32.08
2019-05-13T10:22:22.164Z,35.92
2019-05-13T10:24:51.976Z,35.80
2019-05-13T10:27:22.381Z,34.37
2019-05-13T10:29:51.815Z,34.69
2019-05-13T10:32:21.741Z,34.77
2019-05-13T10:34:48.242Z,33.98
2019-05-13T10:37:15.619Z,33.14
2019-05-13T10:39:42.586Z,31.36
2019-05-13T10:42:11.811Z,32.07
2019-05-13T10:44:38.034Z,32.31
2019-05-13T10:47:05.118Z,32.42
2019-05-13T10:49:33.182Z,32.71
2019-05-13T10:52:02.863Z,31.52
2019-05-13T10:54:28.962Z,31.85
2019-05-13T10:56:59.377Z,31.94
2019-05-13T10:59:24.518Z,32.43
2019-05-13T11:01:51.262Z,32.54
2019-05-13T11:04:18.211Z,31.88
2019-05-13T11:06:45.410Z,32.12
2019-05-13T11:09:42.160Z,31.61
2019-05-13T11:12:07.311Z,31.49
2019-05-13T11:14:34.267Z,31.81
2019-05-13T11:17:01.811Z,29.99
2019-05-13T11:19:34.356Z,30.52
2019-05-13T11:21:59.219Z,31.00
2019-05-13T11:24:27.002Z,31.00
2019-05-13T11:26:54.134Z,30.38
2019-05-13T11:29:22.973Z,30.45
2019-05-13T11:31:52.280Z,30.55
2019-05-13T11:34:18.483Z,30.77
2019-05-13T11:36:48.293Z,29.85
2019-05-13T11:39:15.073Z,30.27
2019-05-13T11:41:43.103Z,30.41
2019-05-13T11:44:16.165Z,29.85
2019-05-13T11:46:42.786Z,26.35
2019-05-13T11:49:08.102Z,28.52
2019-05-13T11:51:34.967Z,27.98
2019-05-13T11:54:02.561Z,28.75
2019-05-13T11:56:33.408Z,29.29
2019-05-13T11:58:58.315Z,29.01
2019-05-13T12:01:25.255Z,28.35
2019-05-13T12:03:53.036Z,28.36
2019-05-13T12:06:23.224Z,28.22
2019-05-13T12:08:52.068Z,28.15
2019-05-13T12:11:17.859Z,27.53
2019-05-13T12:13:45.219Z,27.63
2019-05-13T12:16:12.834Z,27.82
2019-05-13T12:18:43.676Z,27.13
2019-05-13T12:21:09.237Z,27.07
2019-05-13T12:23:36.042Z,27.04
2019-05-13T12:26:04.075Z,27.78
2019-05-13T12:28:32.958Z,27.13
2019-05-13T12:31:03.369Z,26.78
2019-05-13T12:33:33.167Z,26.25
2019-05-13T12:36:01.995Z,25.86
2019-05-13T12:38:32.565Z,25.84
2019-05-13T12:40:59.050Z,25.27
2019-05-13T12:43:26.071Z,25.43
2019-05-13T12:45:53.495Z,25.15
2019-05-13T12:48:22.973Z,25.44
2019-05-13T12:50:52.954Z,25.16
2019-05-13T12:53:18.595Z,25.11
2019-05-13T12:55:52.331Z,25.13
2019-05-13T12:58:14.619Z,24.12
2019-05-13T13:00:43.397Z,23.89
2019-05-13T13:03:13.242Z,23.99
2019-05-13T13:05:43.236Z,23.75
2019-05-13T13:08:24.508Z,23.06
2019-05-13T13:10:37.975Z,22.92
2019-05-13T13:13:04.946Z,22.66
2019-05-13T13:15:38.244Z,22.60
2019-05-13T13:18:03.316Z,22.36
2019-05-13T13:20:33.563Z,22.27
2019-05-13T13:22:59.103Z,22.60
2019-05-13T13:25:25.944Z,22.85
2019-05-13T13:28:10.665Z,22.15
2019-05-13T13:30:22.231Z,21.66
2019-05-13T13:32:54.209Z,21.31
2019-05-13T13:35:21.806Z,21.65
2019-05-13T13:37:48.792Z,21.37
2019-05-13T13:40:24.506Z,21.37
2019-05-13T13:42:46.990Z,21.17
2019-05-13T13:45:14.194Z,21.19
2019-05-13T13:47:45.385Z,21.23
2019-05-13T13:50:11.819Z,20.77
2019-05-13T13:52:39.321Z,20.32
2019-05-13T13:55:08.787Z,19.91
2019-05-13T13:57:35.191Z,19.90
2019-05-13T14:00:24.925Z,19.76
2019-05-13T14:02:37.023Z,19.83
2019-05-13T14:05:05.943Z,19.94
2019-05-13T14:07:37.824Z,19.81
2019-05-13T14:10:07.111Z,20.13
2019-05-13T14:12:34.012Z,19.87
2019-05-13T14:15:02.041Z,20.05
2019-05-13T14:17:31.273Z,19.49
2019-05-13T14:19:58.532Z,19.03
2019-05-13T14:22:26.016Z,19.35
2019-05-13T14:24:53.343Z,19.51
2019-05-13T14:27:22.416Z,18.88
2019-05-13T14:29:50.229Z,19.29
2019-05-13T14:32:17.795Z,18.99
2019-05-13T14:34:46.185Z,19.41
2019-05-13T14:37:13.158Z,19.22
2019-05-13T14:39:40.287Z,19.07
2019-05-13T14:42:07.415Z,19.09
2019-05-13T14:44:34.176Z,18.99
2019-05-13T14:47:03.562Z,19.01
2019-05-13T14:49:31.710Z,18.83
2019-05-13T14:52:00.755Z,19.06
2019-05-13T14:54:27.622Z,19.29
2019-05-13T14:56:54.794Z,19.38
2019-05-13T14:59:22.161Z,19.16
2019-05-13T15:01:51.699Z,20.00
2019-05-13T15:04:18.098Z,20.42
2019-05-13T15:06:45.105Z,20.66
2019-05-13T15:09:12.822Z,20.57
2019-05-13T15:11:41.920Z,20.75
2019-05-13T15:14:11.499Z,21.12
2019-05-13T15:16:37.941Z,21.03
2019-05-13T15:19:04.890Z,21.14
2019-05-13T15:21:32.183Z,21.20
2019-05-13T15:23:59.245Z,21.47
2019-05-13T15:26:26.506Z,21.04
2019-05-13T15:28:53.620Z,20.75
2019-05-13T15:31:22.081Z,20.78
2019-05-13T15:33:49.211Z,20.83
2019-05-13T15:36:15.987Z,20.91
2019-05-13T15:38:42.856Z,21.32
2019-05-13T15:41:14.684Z,22.04
2019-05-13T15:43:42.450Z,22.39
2019-05-13T15:46:09.457Z,22.82
2019-05-13T15:48:36.614Z,23.48
2019-05-13T15:51:04.087Z,23.61
2019-05-13T15:53:32.162Z,22.93
2019-05-13T15:55:59.337Z,23.50
2019-05-13T15:58:38.391Z,23.53
2019-05-13T16:00:54.896Z,23.93
2019-05-13T16:03:22.028Z,24.03
2019-05-13T16:05:51.477Z,24.01
2019-05-13T16:08:17.666Z,24.12
2019-05-13T16:10:44.753Z,24.13
2019-05-13T16:13:12.328Z,24.11
2019-05-13T16:15:41.594Z,24.25
2019-05-13T16:18:07.934Z,24.37
2019-05-13T16:20:35.478Z,24.33
2019-05-13T16:23:03.396Z,24.27
2019-05-13T16:25:31.906Z,24.40
2019-05-13T16:28:01.208Z,24.31
2019-05-13T16:30:28.102Z,24.53
2019-05-13T16:32:55.137Z,24.56
2019-05-13T16:35:22.029Z,24.53
2019-05-13T16:37:49.219Z,24.34
2019-05-13T16:40:16.361Z,24.23
2019-05-13T16:42:43.358Z,23.87
2019-05-13T16:45:12.831Z,23.49
2019-05-13T16:47:55.898Z,23.53
2019-05-13T16:50:11.490Z,23.46
2019-05-13T16:52:38.648Z,23.43
2019-05-13T16:55:06.633Z,23.40
2019-05-13T16:57:33.440Z,23.56
2019-05-13T17:00:03.597Z,23.70
2019-05-13T17:02:31.057Z,23.62
2019-05-13T17:05:01.404Z,23.66
2019-05-13T17:07:28.609Z,23.71
2019-05-13T17:09:56.027Z,23.79
2019-05-13T17:12:22.899Z,23.93
2019-05-13T17:14:52.029Z,24.05
2019-05-13T17:17:18.530Z,24.05
2019-05-13T17:19:45.715Z,24.14
2019-05-13T17:22:13.016Z,24.29
2019-05-13T17:24:42.481Z,24.43
2019-05-13T17:27:09.413Z,24.69
2019-05-13T17:29:36.188Z,24.96
2019-05-13T17:32:03.029Z,25.26
2019-05-13T17:34:31.889Z,25.26
2019-05-13T17:36:58.636Z,25.47
2019-05-13T17:39:25.665Z,25.50
2019-05-13T17:41:52.572Z,25.82
2019-05-13T17:44:22.506Z,26.09
2019-05-13T17:46:52.039Z,26.40
2019-05-13T17:49:18.652Z,26.57
2019-05-13T17:51:45.417Z,26.83
2019-05-13T17:54:12.344Z,27.13
2019-05-13T17:56:39.194Z,27.31
2019-05-13T17:59:06.008Z,27.36
2019-05-13T18:01:33.161Z,27.43
2019-05-13T18:04:02.268Z,27.41
2019-05-13T18:06:28.661Z,27.36
2019-05-13T18:08:55.444Z,27.36
2019-05-13T18:11:22.316Z,27.07
2019-05-13T18:13:51.704Z,27.30
2019-05-13T18:16:18.376Z,27.23
2019-05-13T18:18:47.560Z,27.43
2019-05-13T18:21:14.340Z,27.42
2019-05-13T18:23:41.529Z,27.57
2019-05-13T18:26:12.431Z,27.49
2019-05-13T18:28:42.009Z,27.47
2019-05-13T18:31:12.256Z,27.51
2019-05-13T18:33:39.122Z,27.67
2019-05-13T18:36:05.951Z,27.77
2019-05-13T18:38:32.797Z,27.87
2019-05-13T18:41:01.734Z,27.87
2019-05-13T18:43:28.662Z,27.80
2019-05-13T18:45:55.540Z,28.05
2019-05-13T18:48:22.668Z,27.99
2019-05-13T18:50:52.109Z,28.27
2019-05-13T18:53:18.703Z,28.56
2019-05-13T18:55:45.762Z,28.68
2019-05-13T18:58:12.621Z,28.77
2019-05-13T19:00:41.600Z,28.65
2019-05-13T19:03:08.568Z,28.45
2019-05-13T19:05:35.467Z,28.75
2019-05-13T19:08:02.856Z,29.03
2019-05-13T19:10:31.278Z,29.16
2019-05-13T19:13:01.192Z,29.38
2019-05-13T19:15:27.936Z,29.33
2019-05-13T19:17:55.062Z,29.51
2019-05-13T19:20:22.115Z,29.87
2019-05-13T19:22:51.684Z,29.92
2019-05-13T19:25:18.581Z,30.12
2019-05-13T19:27:45.800Z,30.78
2019-05-13T19:30:15.104Z,31.29
2019-05-13T19:32:41.911Z,31.50
2019-05-13T19:35:11.649Z,31.83
2019-05-13T19:37:38.688Z,32.56
2019-05-13T19:40:06.092Z,32.95
2019-05-13T19:42:33.056Z,33.54
2019-05-13T19:45:01.944Z,33.85
2019-05-13T19:47:28.950Z,34.10
2019-05-13T19:49:55.701Z,34.86
2019-05-13T19:52:22.913Z,34.83
2019-05-13T19:54:51.425Z,34.75
2019-05-13T19:57:21.100Z,34.86
2019-05-13T19:59:47.517Z,35.26
2019-05-13T20:02:14.417Z,35.59
2019-05-13T20:04:41.547Z,35.58
2019-05-13T20:07:08.958Z,35.87
2019-05-13T20:09:35.736Z,36.25
2019-05-13T20:12:04.856Z,36.47
2019-05-13T20:14:31.708Z,36.75
2019-05-13T20:17:01.723Z,37.29
2019-05-13T20:19:42.718Z,37.86
2019-05-13T20:21:58.027Z,37.69
2019-05-13T20:24:24.940Z,38.09
2019-05-13T20:26:52.293Z,38.64
2019-05-13T20:29:19.627Z,39.10
2019-05-13T20:31:46.393Z,39.25
2019-05-13T20:34:13.264Z,39.28
2019-05-13T20:36:42.066Z,39.71
2019-05-13T20:39:08.893Z,39.65
2019-05-13T20:41:36.302Z,39.83
2019-05-13T20:44:03.194Z,39.51
2019-05-13T20:46:32.540Z,40.32
2019-05-13T20:48:59.415Z,40.74
2019-05-13T20:51:26.276Z,40.73
2019-05-13T20:53:53.068Z,40.62
2019-05-13T20:56:21.441Z,40.92
2019-05-13T20:58:48.591Z,41.71
2019-05-13T21:01:15.500Z,42.56
2019-05-13T21:03:42.377Z,43.18
2019-05-13T21:06:11.582Z,43.13
2019-05-13T21:08:38.219Z,43.60
2019-05-13T21:11:05.063Z,43.72
2019-05-13T21:13:32.084Z,44.10
2019-05-13T21:16:02.047Z,44.46
2019-05-13T21:18:28.323Z,44.32
2019-05-13T21:20:55.416Z,44.53
2019-05-13T21:23:22.684Z,44.86
2019-05-13T21:25:51.054Z,44.60
2019-05-13T21:28:19.069Z,45.03
2019-05-13T21:30:46.433Z,45.64
2019-05-13T21:33:13.825Z,45.34
2019-05-13T21:35:41.931Z,45.03
2019-05-13T21:38:11.328Z,44.86
2019-05-13T21:40:38.760Z,45.00
2019-05-13T21:43:06.108Z,45.19
2019-05-13T21:45:32.961Z,45.15
2019-05-13T21:48:01.706Z,45.31
2019-05-13T21:50:34.155Z,45.96
2019-05-13T21:52:57.640Z,45.79
2019-05-13T21:55:25.021Z,45.85
2019-05-13T21:57:53.065Z,46.02
2019-05-13T22:00:25.296Z,46.30
2019-05-13T22:02:52.434Z,47.54
2019-05-13T22:05:19.192Z,49.15
2019-05-13T22:07:46.215Z,49.85
2019-05-13T22:10:13.464Z,50.81
2019-05-13T22:12:41.504Z,50.97
2019-05-13T22:15:09.433Z,51.42
2019-05-13T22:17:36.275Z,51.44
2019-05-13T22:20:07.317Z,50.07
2019-05-13T22:22:34.276Z,49.40
2019-05-13T22:25:02.059Z,49.73
2019-05-13T22:27:29.009Z,52.46
2019-05-13T22:29:55.911Z,52.82
2019-05-13T22:32:22.843Z,53.15
2019-05-13T22:34:51.192Z,53.14
2019-05-13T22:37:18.771Z,52.73
2019-05-13T22:39:46.445Z,52.29
2019-05-13T22:42:13.410Z,52.80
2019-05-13T22:44:41.726Z,52.63
2019-05-13T22:47:13.005Z,52.43
2019-05-13T22:49:37.917Z,51.84
2019-05-13T22:52:04.717Z,52.19
2019-05-13T22:54:31.941Z,53.77
2019-05-13T22:56:59.195Z,53.59
2019-05-13T22:59:26.217Z,53.79
2019-05-13T23:01:53.141Z,53.71
2019-05-13T23:04:19.988Z,54.35
2019-05-13T23:06:47.099Z,55.15
2019-05-13T23:09:13.877Z,55.59
2019-05-13T23:11:41.791Z,55.34
2019-05-13T23:14:10.888Z,55.62
2019-05-13T23:16:37.520Z,54.99
2019-05-13T23:19:04.404Z,55.39
2019-05-13T23:21:31.823Z,55.00
2019-05-13T23:23:59.004Z,54.62
2019-05-13T23:26:26.139Z,55.66
2019-05-13T23:28:53.339Z,56.48
2019-05-13T23:31:20.080Z,57.19
2019-05-13T23:33:46.973Z,56.79
2019-05-13T23:36:13.816Z,56.69
2019-05-13T23:38:41.416Z,56.40
2019-05-13T23:41:08.474Z,55.81
2019-05-13T23:43:35.583Z,55.85
2019-05-13T23:46:02.540Z,55.05
2019-05-13T23:48:31.874Z,55.05
2019-05-13T23:50:58.794Z,55.97
2019-05-13T23:53:26.148Z,56.21
2019-05-13T23:55:53.015Z,57.93
2019-05-13T23:58:21.683Z,57.58
